sensor_id;sensor_type;location;lat;lon;timestamp;P1;durP1;ratioP1;P2;durP2;ratioP2
11677;SDS011;5895;41.950;24.372;2022-09-12T00:00:46;5.93;;;4.53;;
11677;SDS011;5895;41.950;24.372;2022-09-12T00:03:13;5.30;;;4.90;;
11677;SDS011;5895;41.950;24.372;2022-09-12T00:05:41;5.22;;;4.82;;
11677;SDS011;5895;41.950;24.372;2022-09-12T00:08:09;5.63;;;5.13;;
11677;SDS011;5895;41.950;24.372;2022-09-12T00:10:37;5.53;;;5.03;;
11677;SDS011;5895;41.950;24.372;2022-09-12T00:13:04;5.63;;;4.90;;
11677;SDS011;5895;41.950;24.372;2022-09-12T00:15:36;5.10;;;4.70;;
11677;SDS011;5895;41.950;24.372;2022-09-12T00:18:07;5.15;;;4.75;;
11677;SDS011;5895;41.950;24.372;2022-09-12T00:20:35;5.00;;;4.60;;
11677;SDS011;5895;41.950;24.372;2022-09-12T00:23:07;4.63;;;4.32;;
11677;SDS011;5895;41.950;24.372;2022-09-12T00:25:39;3.95;;;3.65;;
11677;SDS011;5895;41.950;24.372;2022-09-12T00:28:07;4.57;;;4.28;;
11677;SDS011;5895;41.950;24.372;2022-09-12T00:30:38;4.43;;;4.10;;
11677;SDS011;5895;41.950;24.372;2022-09-12T00:33:09;4.03;;;3.72;;
11677;SDS011;5895;41.950;24.372;2022-09-12T00:35:40;4.03;;;3.72;;
11677;SDS011;5895;41.950;24.372;2022-09-12T00:38:08;4.22;;;3.92;;
11677;SDS011;5895;41.950;24.372;2022-09-12T00:40:36;4.47;;;4.18;;
11677;SDS011;5895;41.950;24.372;2022-09-12T00:43:03;4.40;;;4.07;;
11677;SDS011;5895;41.950;24.372;2022-09-12T00:45:31;3.97;;;3.58;;
11677;SDS011;5895;41.950;24.372;2022-09-12T00:47:59;3.60;;;3.40;;
11677;SDS011;5895;41.950;24.372;2022-09-12T00:50:31;5.95;;;3.40;;
11677;SDS011;5895;41.950;24.372;2022-09-12T00:52:59;3.50;;;3.10;;
11677;SDS011;5895;41.950;24.372;2022-09-12T00:55:31;3.40;;;3.20;;
11677;SDS011;5895;41.950;24.372;2022-09-12T00:58:03;3.40;;;3.10;;
11677;SDS011;5895;41.950;24.372;2022-09-12T01:00:35;3.25;;;3.05;;
11677;SDS011;5895;41.950;24.372;2022-09-12T01:03:03;3.22;;;3.03;;
11677;SDS011;5895;41.950;24.372;2022-09-12T01:05:35;3.28;;;3.08;;
11677;SDS011;5895;41.950;24.372;2022-09-12T01:08:04;3.53;;;3.33;;
11677;SDS011;5895;41.950;24.372;2022-09-12T01:10:33;3.65;;;3.35;;
11677;SDS011;5895;41.950;24.372;2022-09-12T01:13:03;3.75;;;3.45;;
11677;SDS011;5895;41.950;24.372;2022-09-12T01:15:32;4.38;;;3.70;;
11677;SDS011;5895;41.950;24.372;2022-09-12T01:18:08;3.83;;;3.53;;
11677;SDS011;5895;41.950;24.372;2022-09-12T01:20:57;3.85;;;3.55;;
11677;SDS011;5895;41.950;24.372;2022-09-12T01:33:07;4.20;;;3.90;;
11677;SDS011;5895;41.950;24.372;2022-09-12T01:35:55;4.90;;;3.50;;
11677;SDS011;5895;41.950;24.372;2022-09-12T01:38:36;3.70;;;3.40;;
11677;SDS011;5895;41.950;24.372;2022-09-12T01:41:09;3.55;;;3.35;;
11677;SDS011;5895;41.950;24.372;2022-09-12T01:43:46;3.00;;;2.80;;
11677;SDS011;5895;41.950;24.372;2022-09-12T01:46:20;3.50;;;3.20;;
11677;SDS011;5895;41.950;24.372;2022-09-12T01:48:54;4.95;;;3.15;;
11677;SDS011;5895;41.950;24.372;2022-09-12T01:51:26;3.50;;;3.20;;
11677;SDS011;5895;41.950;24.372;2022-09-12T01:53:59;5.45;;;2.90;;
11677;SDS011;5895;41.950;24.372;2022-09-12T01:56:32;3.78;;;3.00;;
11677;SDS011;5895;41.950;24.372;2022-09-12T01:59:04;3.03;;;2.83;;
11677;SDS011;5895;41.950;24.372;2022-09-12T02:01:38;4.43;;;2.80;;
11677;SDS011;5895;41.950;24.372;2022-09-12T02:04:12;3.88;;;2.97;;
11677;SDS011;5895;41.950;24.372;2022-09-12T02:06:44;3.35;;;2.65;;
11677;SDS011;5895;41.950;24.372;2022-09-12T02:09:16;4.13;;;2.75;;
11677;SDS011;5895;41.950;24.372;2022-09-12T02:11:47;3.40;;;2.92;;
11677;SDS011;5895;41.950;24.372;2022-09-12T02:14:18;3.75;;;2.78;;
11677;SDS011;5895;41.950;24.372;2022-09-12T02:16:51;3.47;;;2.88;;
11677;SDS011;5895;41.950;24.372;2022-09-12T02:19:25;3.10;;;2.90;;
11677;SDS011;5895;41.950;24.372;2022-09-12T02:21:58;3.17;;;2.90;;
11677;SDS011;5895;41.950;24.372;2022-09-12T02:24:28;5.43;;;3.05;;
11677;SDS011;5895;41.950;24.372;2022-09-12T02:27:03;3.05;;;2.80;;
11677;SDS011;5895;41.950;24.372;2022-09-12T02:29:33;3.35;;;3.05;;
11677;SDS011;5895;41.950;24.372;2022-09-12T02:32:04;3.10;;;2.80;;
11677;SDS011;5895;41.950;24.372;2022-09-12T02:34:40;3.80;;;3.40;;
11677;SDS011;5895;41.950;24.372;2022-09-12T02:37:17;3.17;;;2.88;;
11677;SDS011;5895;41.950;24.372;2022-09-12T02:39:51;3.40;;;3.10;;
11677;SDS011;5895;41.950;24.372;2022-09-12T02:42:19;3.72;;;2.70;;
11677;SDS011;5895;41.950;24.372;2022-09-12T02:44:47;3.47;;;3.17;;
11677;SDS011;5895;41.950;24.372;2022-09-12T02:47:18;3.95;;;3.65;;
11677;SDS011;5895;41.950;24.372;2022-09-12T02:49:51;3.95;;;3.65;;
11677;SDS011;5895;41.950;24.372;2022-09-12T02:52:18;3.83;;;3.50;;
11677;SDS011;5895;41.950;24.372;2022-09-12T02:54:46;2.92;;;2.72;;
11677;SDS011;5895;41.950;24.372;2022-09-12T02:57:16;3.10;;;2.85;;
11677;SDS011;5895;41.950;24.372;2022-09-12T02:59:45;3.22;;;2.60;;
11677;SDS011;5895;41.950;24.372;2022-09-12T03:02:21;3.08;;;2.78;;
11677;SDS011;5895;41.950;24.372;2022-09-12T03:13:43;2.25;;;2.15;;
11677;SDS011;5895;41.950;24.372;2022-09-12T03:16:22;2.95;;;2.40;;
11677;SDS011;5895;41.950;24.372;2022-09-12T03:18:59;2.22;;;2.08;;
11677;SDS011;5895;41.950;24.372;2022-09-12T03:21:36;2.20;;;2.10;;
11677;SDS011;5895;41.950;24.372;2022-09-12T03:24:15;1.80;;;1.70;;
11677;SDS011;5895;41.950;24.372;2022-09-12T03:26:46;1.98;;;1.88;;
11677;SDS011;5895;41.950;24.372;2022-09-12T03:29:16;3.47;;;2.50;;
11677;SDS011;5895;41.950;24.372;2022-09-12T03:31:49;2.10;;;1.90;;
11677;SDS011;5895;41.950;24.372;2022-09-12T03:34:20;2.03;;;1.83;;
11677;SDS011;5895;41.950;24.372;2022-09-12T03:36:48;2.78;;;2.00;;
11677;SDS011;5895;41.950;24.372;2022-09-12T03:39:16;2.50;;;2.30;;
11677;SDS011;5895;41.950;24.372;2022-09-12T03:41:44;3.40;;;2.05;;
11677;SDS011;5895;41.950;24.372;2022-09-12T03:44:12;2.90;;;1.70;;
11677;SDS011;5895;41.950;24.372;2022-09-12T03:46:39;2.58;;;1.90;;
11677;SDS011;5895;41.950;24.372;2022-09-12T03:49:06;2.38;;;1.80;;
11677;SDS011;5895;41.950;24.372;2022-09-12T03:51:36;1.70;;;1.60;;
11677;SDS011;5895;41.950;24.372;2022-09-12T03:54:04;2.63;;;1.83;;
11677;SDS011;5895;41.950;24.372;2022-09-12T03:56:32;1.70;;;1.60;;
11677;SDS011;5895;41.950;24.372;2022-09-12T03:59:03;2.35;;;1.60;;
11677;SDS011;5895;41.950;24.372;2022-09-12T04:01:31;1.60;;;1.48;;
11677;SDS011;5895;41.950;24.372;2022-09-12T04:03:59;1.35;;;1.25;;
11677;SDS011;5895;41.950;24.372;2022-09-12T04:06:26;1.58;;;1.48;;
11677;SDS011;5895;41.950;24.372;2022-09-12T04:08:56;1.40;;;1.30;;
11677;SDS011;5895;41.950;24.372;2022-09-12T04:11:24;1.55;;;1.35;;
11677;SDS011;5895;41.950;24.372;2022-09-12T04:13:51;4.82;;;1.60;;
11677;SDS011;5895;41.950;24.372;2022-09-12T04:16:19;2.08;;;1.98;;
11677;SDS011;5895;41.950;24.372;2022-09-12T04:18:46;3.80;;;1.80;;
11677;SDS011;5895;41.950;24.372;2022-09-12T04:21:14;4.40;;;4.00;;
11677;SDS011;5895;41.950;24.372;2022-09-12T04:23:43;2.30;;;2.10;;
11677;SDS011;5895;41.950;24.372;2022-09-12T04:26:13;4.30;;;1.48;;
11677;SDS011;5895;41.950;24.372;2022-09-12T04:28:41;2.42;;;1.92;;
11677;SDS011;5895;41.950;24.372;2022-09-12T04:31:11;3.85;;;1.50;;
11677;SDS011;5895;41.950;24.372;2022-09-12T04:33:41;1.80;;;1.50;;
11677;SDS011;5895;41.950;24.372;2022-09-12T04:36:09;1.70;;;1.60;;
11677;SDS011;5895;41.950;24.372;2022-09-12T04:38:41;1.85;;;1.70;;
11677;SDS011;5895;41.950;24.372;2022-09-12T04:41:10;2.65;;;2.05;;
11677;SDS011;5895;41.950;24.372;2022-09-12T04:43:40;2.55;;;2.10;;
11677;SDS011;5895;41.950;24.372;2022-09-12T04:46:08;2.70;;;1.70;;
11677;SDS011;5895;41.950;24.372;2022-09-12T04:48:37;1.95;;;1.85;;
11677;SDS011;5895;41.950;24.372;2022-09-12T04:51:05;2.55;;;1.95;;
11677;SDS011;5895;41.950;24.372;2022-09-12T04:53:34;1.80;;;1.70;;
11677;SDS011;5895;41.950;24.372;2022-09-12T04:56:03;2.22;;;1.80;;
11677;SDS011;5895;41.950;24.372;2022-09-12T04:58:31;1.90;;;1.80;;
11677;SDS011;5895;41.950;24.372;2022-09-12T05:01:05;3.38;;;1.90;;
11677;SDS011;5895;41.950;24.372;2022-09-12T05:03:33;1.92;;;1.80;;
11677;SDS011;5895;41.950;24.372;2022-09-12T05:06:03;2.28;;;1.70;;
11677;SDS011;5895;41.950;24.372;2022-09-12T05:08:32;3.45;;;2.10;;
11677;SDS011;5895;41.950;24.372;2022-09-12T05:11:01;2.13;;;1.92;;
11677;SDS011;5895;41.950;24.372;2022-09-12T05:13:29;1.90;;;1.80;;
11677;SDS011;5895;41.950;24.372;2022-09-12T05:15:57;2.47;;;2.28;;
11677;SDS011;5895;41.950;24.372;2022-09-12T05:18:27;1.80;;;1.70;;
11677;SDS011;5895;41.950;24.372;2022-09-12T05:20:58;5.68;;;2.22;;
11677;SDS011;5895;41.950;24.372;2022-09-12T05:23:26;2.30;;;2.10;;
11677;SDS011;5895;41.950;24.372;2022-09-12T05:25:54;3.47;;;3.10;;
11677;SDS011;5895;41.950;24.372;2022-09-12T05:28:23;2.92;;;2.72;;
11677;SDS011;5895;41.950;24.372;2022-09-12T05:30:58;2.50;;;2.30;;
11677;SDS011;5895;41.950;24.372;2022-09-12T05:33:28;5.03;;;2.80;;
11677;SDS011;5895;41.950;24.372;2022-09-12T05:35:57;3.88;;;2.67;;
11677;SDS011;5895;41.950;24.372;2022-09-12T05:38:24;2.47;;;2.03;;
11677;SDS011;5895;41.950;24.372;2022-09-12T05:40:53;2.58;;;2.10;;
11677;SDS011;5895;41.950;24.372;2022-09-12T05:43:28;2.55;;;1.80;;
11677;SDS011;5895;41.950;24.372;2022-09-12T05:45:59;1.70;;;1.50;;
11677;SDS011;5895;41.950;24.372;2022-09-12T05:48:29;1.73;;;1.63;;
11677;SDS011;5895;41.950;24.372;2022-09-12T05:51:00;4.40;;;1.60;;
11677;SDS011;5895;41.950;24.372;2022-09-12T05:53:29;1.60;;;1.50;;
11677;SDS011;5895;41.950;24.372;2022-09-12T05:56:04;1.83;;;1.65;;
11677;SDS011;5895;41.950;24.372;2022-09-12T05:58:34;1.90;;;1.80;;
11677;SDS011;5895;41.950;24.372;2022-09-12T06:01:02;2.88;;;2.08;;
11677;SDS011;5895;41.950;24.372;2022-09-12T06:03:33;1.70;;;1.60;;
11677;SDS011;5895;41.950;24.372;2022-09-12T06:06:02;2.50;;;1.90;;
11677;SDS011;5895;41.950;24.372;2022-09-12T06:08:30;1.95;;;1.40;;
11677;SDS011;5895;41.950;24.372;2022-09-12T06:10:59;1.35;;;1.15;;
11677;SDS011;5895;41.950;24.372;2022-09-12T06:13:28;1.70;;;1.40;;
11677;SDS011;5895;41.950;24.372;2022-09-12T06:16:01;1.98;;;1.35;;
11677;SDS011;5895;41.950;24.372;2022-09-12T06:18:30;1.75;;;1.30;;
11677;SDS011;5895;41.950;24.372;2022-09-12T06:21:02;1.33;;;1.23;;
11677;SDS011;5895;41.950;24.372;2022-09-12T06:23:30;1.73;;;1.42;;
11677;SDS011;5895;41.950;24.372;2022-09-12T06:25:58;1.77;;;1.40;;
11677;SDS011;5895;41.950;24.372;2022-09-12T06:28:26;1.45;;;1.35;;
11677;SDS011;5895;41.950;24.372;2022-09-12T06:30:59;2.90;;;1.10;;
11677;SDS011;5895;41.950;24.372;2022-09-12T06:33:28;1.40;;;1.30;;
11677;SDS011;5895;41.950;24.372;2022-09-12T06:36:02;1.98;;;1.52;;
11677;SDS011;5895;41.950;24.372;2022-09-12T06:38:30;1.55;;;1.45;;
11677;SDS011;5895;41.950;24.372;2022-09-12T06:40:58;1.40;;;1.30;;
11677;SDS011;5895;41.950;24.372;2022-09-12T06:43:27;1.27;;;1.17;;
11677;SDS011;5895;41.950;24.372;2022-09-12T06:45:55;1.25;;;1.15;;
11677;SDS011;5895;41.950;24.372;2022-09-12T06:48:23;1.20;;;1.10;;
11677;SDS011;5895;41.950;24.372;2022-09-12T06:50:55;1.65;;;1.30;;
11677;SDS011;5895;41.950;24.372;2022-09-12T06:53:25;1.50;;;1.00;;
11677;SDS011;5895;41.950;24.372;2022-09-12T06:55:55;2.60;;;1.10;;
11677;SDS011;5895;41.950;24.372;2022-09-12T06:58:23;1.30;;;1.20;;
11677;SDS011;5895;41.950;24.372;2022-09-12T07:00:51;2.45;;;1.20;;
11677;SDS011;5895;41.950;24.372;2022-09-12T07:03:20;1.70;;;1.17;;
11677;SDS011;5895;41.950;24.372;2022-09-12T07:05:47;1.23;;;1.13;;
11677;SDS011;5895;41.950;24.372;2022-09-12T07:08:15;2.88;;;1.15;;
11677;SDS011;5895;41.950;24.372;2022-09-12T07:10:44;1.10;;;1.10;;
11677;SDS011;5895;41.950;24.372;2022-09-12T07:13:11;1.25;;;1.08;;
11677;SDS011;5895;41.950;24.372;2022-09-12T07:15:39;1.33;;;1.20;;
11677;SDS011;5895;41.950;24.372;2022-09-12T07:18:07;3.72;;;1.30;;
11677;SDS011;5895;41.950;24.372;2022-09-12T07:20:36;1.40;;;1.30;;
11677;SDS011;5895;41.950;24.372;2022-09-12T07:23:04;3.55;;;1.60;;
11677;SDS011;5895;41.950;24.372;2022-09-12T07:25:31;2.85;;;1.40;;
11677;SDS011;5895;41.950;24.372;2022-09-12T07:28:01;1.50;;;1.38;;
11677;SDS011;5895;41.950;24.372;2022-09-12T07:30:28;1.58;;;1.48;;
11677;SDS011;5895;41.950;24.372;2022-09-12T07:32:56;4.30;;;1.80;;
11677;SDS011;5895;41.950;24.372;2022-09-12T07:35:23;1.40;;;1.30;;
11677;SDS011;5895;41.950;24.372;2022-09-12T07:37:51;1.50;;;1.40;;
11677;SDS011;5895;41.950;24.372;2022-09-12T07:40:18;2.00;;;1.50;;
11677;SDS011;5895;41.950;24.372;2022-09-12T07:42:46;3.30;;;1.50;;
11677;SDS011;5895;41.950;24.372;2022-09-12T07:45:15;1.30;;;1.10;;
11677;SDS011;5895;41.950;24.372;2022-09-12T07:47:43;1.20;;;1.10;;
11677;SDS011;5895;41.950;24.372;2022-09-12T07:50:10;1.95;;;1.20;;
11677;SDS011;5895;41.950;24.372;2022-09-12T07:52:38;1.67;;;1.30;;
11677;SDS011;5895;41.950;24.372;2022-09-12T07:55:05;1.42;;;1.23;;
11677;SDS011;5895;41.950;24.372;2022-09-12T07:57:33;1.25;;;1.05;;
11677;SDS011;5895;41.950;24.372;2022-09-12T08:00:01;1.30;;;1.20;;
11677;SDS011;5895;41.950;24.372;2022-09-12T08:02:32;1.85;;;1.30;;
11677;SDS011;5895;41.950;24.372;2022-09-12T08:04:59;1.13;;;1.02;;
11677;SDS011;5895;41.950;24.372;2022-09-12T08:07:27;3.05;;;1.00;;
11677;SDS011;5895;41.950;24.372;2022-09-12T08:09:54;1.15;;;1.05;;
11677;SDS011;5895;41.950;24.372;2022-09-12T08:12:22;3.03;;;0.95;;
11677;SDS011;5895;41.950;24.372;2022-09-12T08:14:49;1.25;;;1.05;;
11677;SDS011;5895;41.950;24.372;2022-09-12T08:17:17;1.00;;;0.98;;
11677;SDS011;5895;41.950;24.372;2022-09-12T08:19:46;1.00;;;0.90;;
11677;SDS011;5895;41.950;24.372;2022-09-12T08:22:13;0.85;;;0.85;;
11677;SDS011;5895;41.950;24.372;2022-09-12T08:24:41;2.05;;;0.95;;
11677;SDS011;5895;41.950;24.372;2022-09-12T08:27:08;0.90;;;0.90;;
11677;SDS011;5895;41.950;24.372;2022-09-12T08:29:36;0.85;;;0.70;;
11677;SDS011;5895;41.950;24.372;2022-09-12T08:32:04;1.10;;;1.00;;
11677;SDS011;5895;41.950;24.372;2022-09-12T08:34:31;0.88;;;0.88;;
11677;SDS011;5895;41.950;24.372;2022-09-12T08:37:00;0.80;;;0.80;;
11677;SDS011;5895;41.950;24.372;2022-09-12T08:39:28;2.97;;;1.00;;
11677;SDS011;5895;41.950;24.372;2022-09-12T08:41:57;0.90;;;0.90;;
11677;SDS011;5895;41.950;24.372;2022-09-12T08:44:37;1.13;;;1.10;;
11677;SDS011;5895;41.950;24.372;2022-09-12T08:47:22;0.90;;;0.90;;
11677;SDS011;5895;41.950;24.372;2022-09-12T08:49:55;0.82;;;0.82;;
11677;SDS011;5895;41.950;24.372;2022-09-12T08:52:40;1.25;;;1.10;;
11677;SDS011;5895;41.950;24.372;2022-09-12T08:55:24;1.10;;;1.00;;
11677;SDS011;5895;41.950;24.372;2022-09-12T08:57:57;1.50;;;1.30;;
11677;SDS011;5895;41.950;24.372;2022-09-12T09:00:26;2.63;;;1.40;;
11677;SDS011;5895;41.950;24.372;2022-09-12T09:03:16;1.02;;;1.00;;
11677;SDS011;5895;41.950;24.372;2022-09-12T09:06:09;2.08;;;1.30;;
11677;SDS011;5895;41.950;24.372;2022-09-12T09:08:51;1.55;;;1.40;;
11677;SDS011;5895;41.950;24.372;2022-09-12T09:11:32;1.50;;;1.27;;
11677;SDS011;5895;41.950;24.372;2022-09-12T09:14:12;1.40;;;1.23;;
11677;SDS011;5895;41.950;24.372;2022-09-12T09:17:10;1.70;;;1.25;;
11677;SDS011;5895;41.950;24.372;2022-09-12T09:19:41;1.30;;;1.20;;
11677;SDS011;5895;41.950;24.372;2022-09-12T09:22:13;1.00;;;1.00;;
11677;SDS011;5895;41.950;24.372;2022-09-12T09:24:50;1.02;;;1.02;;
11677;SDS011;5895;41.950;24.372;2022-09-12T09:27:22;1.23;;;1.10;;
11677;SDS011;5895;41.950;24.372;2022-09-12T09:29:57;1.73;;;1.10;;
11677;SDS011;5895;41.950;24.372;2022-09-12T09:32:25;1.10;;;1.00;;
11677;SDS011;5895;41.950;24.372;2022-09-12T09:34:54;2.17;;;1.13;;
11677;SDS011;5895;41.950;24.372;2022-09-12T09:37:24;1.60;;;1.25;;
11677;SDS011;5895;41.950;24.372;2022-09-12T09:40:03;2.20;;;1.42;;
11677;SDS011;5895;41.950;24.372;2022-09-12T09:42:40;2.05;;;1.85;;
11677;SDS011;5895;41.950;24.372;2022-09-12T09:45:18;1.60;;;1.50;;
11677;SDS011;5895;41.950;24.372;2022-09-12T09:47:48;2.33;;;1.60;;
11677;SDS011;5895;41.950;24.372;2022-09-12T09:50:18;2.95;;;1.42;;
11677;SDS011;5895;41.950;24.372;2022-09-12T09:52:46;2.60;;;1.30;;
11677;SDS011;5895;41.950;24.372;2022-09-12T09:55:18;1.83;;;1.40;;
11677;SDS011;5895;41.950;24.372;2022-09-12T09:57:49;2.75;;;1.40;;
11677;SDS011;5895;41.950;24.372;2022-09-12T10:00:24;2.00;;;1.60;;
11677;SDS011;5895;41.950;24.372;2022-09-12T10:02:59;1.95;;;1.75;;
11677;SDS011;5895;41.950;24.372;2022-09-12T10:05:44;1.85;;;1.70;;
11677;SDS011;5895;41.950;24.372;2022-09-12T10:08:18;1.85;;;1.75;;
11677;SDS011;5895;41.950;24.372;2022-09-12T10:10:58;3.17;;;1.70;;
11677;SDS011;5895;41.950;24.372;2022-09-12T10:13:39;1.50;;;1.40;;
11677;SDS011;5895;41.950;24.372;2022-09-12T10:16:16;2.17;;;1.83;;
11677;SDS011;5895;41.950;24.372;2022-09-12T10:18:46;1.73;;;1.63;;
11677;SDS011;5895;41.950;24.372;2022-09-12T10:24:05;1.50;;;1.40;;
11677;SDS011;5895;41.950;24.372;2022-09-12T10:26:48;1.73;;;1.63;;
11677;SDS011;5895;41.950;24.372;2022-09-12T10:29:20;1.60;;;1.50;;
11677;SDS011;5895;41.950;24.372;2022-09-12T10:31:52;1.63;;;1.52;;
11677;SDS011;5895;41.950;24.372;2022-09-12T10:34:27;1.70;;;1.60;;
11677;SDS011;5895;41.950;24.372;2022-09-12T10:36:59;1.50;;;1.40;;
11677;SDS011;5895;41.950;24.372;2022-09-12T10:39:31;2.30;;;1.67;;
11677;SDS011;5895;41.950;24.372;2022-09-12T10:42:02;1.75;;;1.65;;
11677;SDS011;5895;41.950;24.372;2022-09-12T10:44:30;2.90;;;1.70;;
11677;SDS011;5895;41.950;24.372;2022-09-12T10:47:00;1.80;;;1.63;;
11677;SDS011;5895;41.950;24.372;2022-09-12T10:49:45;2.38;;;1.48;;
11677;SDS011;5895;41.950;24.372;2022-09-12T10:52:16;3.35;;;1.58;;
11677;SDS011;5895;41.950;24.372;2022-09-12T10:54:47;1.58;;;1.48;;
11677;SDS011;5895;41.950;24.372;2022-09-12T10:57:20;2.30;;;1.90;;
11677;SDS011;5895;41.950;24.372;2022-09-12T11:00:17;1.80;;;1.70;;
11677;SDS011;5895;41.950;24.372;2022-09-12T11:02:57;1.60;;;1.50;;
11677;SDS011;5895;41.950;24.372;2022-09-12T11:05:36;1.80;;;1.70;;
11677;SDS011;5895;41.950;24.372;2022-09-12T11:08:18;1.60;;;1.50;;
11677;SDS011;5895;41.950;24.372;2022-09-12T11:11:06;2.03;;;1.70;;
11677;SDS011;5895;41.950;24.372;2022-09-12T11:13:49;1.80;;;1.70;;
11677;SDS011;5895;41.950;24.372;2022-09-12T11:16:26;2.63;;;1.92;;
11677;SDS011;5895;41.950;24.372;2022-09-12T11:22:12;2.50;;;1.70;;
11677;SDS011;5895;41.950;24.372;2022-09-12T11:24:57;2.42;;;1.90;;
11677;SDS011;5895;41.950;24.372;2022-09-12T11:27:46;1.80;;;1.70;;
11677;SDS011;5895;41.950;24.372;2022-09-12T11:30:28;1.83;;;1.70;;
11677;SDS011;5895;41.950;24.372;2022-09-12T11:33:03;3.47;;;1.90;;
11677;SDS011;5895;41.950;24.372;2022-09-12T11:35:42;2.63;;;1.80;;
11677;SDS011;5895;41.950;24.372;2022-09-12T11:38:30;2.15;;;1.63;;
11677;SDS011;5895;41.950;24.372;2022-09-12T11:41:11;1.58;;;1.48;;
11677;SDS011;5895;41.950;24.372;2022-09-12T11:43:45;1.67;;;1.58;;
11677;SDS011;5895;41.950;24.372;2022-09-12T11:46:20;1.80;;;1.70;;
11677;SDS011;5895;41.950;24.372;2022-09-12T11:48:52;2.03;;;1.73;;
11677;SDS011;5895;41.950;24.372;2022-09-12T11:51:25;2.55;;;1.60;;
11677;SDS011;5895;41.950;24.372;2022-09-12T11:54:05;1.63;;;1.52;;
11677;SDS011;5895;41.950;24.372;2022-09-12T11:56:41;1.63;;;1.52;;
11677;SDS011;5895;41.950;24.372;2022-09-12T11:59:14;1.70;;;1.60;;
11677;SDS011;5895;41.950;24.372;2022-09-12T12:01:48;2.55;;;1.65;;
11677;SDS011;5895;41.950;24.372;2022-09-12T12:04:22;2.05;;;1.85;;
11677;SDS011;5895;41.950;24.372;2022-09-12T12:06:56;2.63;;;1.70;;
11677;SDS011;5895;41.950;24.372;2022-09-12T12:09:30;2.20;;;2.00;;
11677;SDS011;5895;41.950;24.372;2022-09-12T12:11:59;1.80;;;1.70;;
11677;SDS011;5895;41.950;24.372;2022-09-12T12:14:32;1.77;;;1.67;;
11677;SDS011;5895;41.950;24.372;2022-09-12T12:17:13;1.80;;;1.70;;
11677;SDS011;5895;41.950;24.372;2022-09-12T12:19:42;2.35;;;1.65;;
11677;SDS011;5895;41.950;24.372;2022-09-12T12:22:17;1.77;;;1.67;;
11677;SDS011;5895;41.950;24.372;2022-09-12T12:24:57;2.15;;;1.80;;
11677;SDS011;5895;41.950;24.372;2022-09-12T12:36:30;1.80;;;1.70;;
11677;SDS011;5895;41.950;24.372;2022-09-12T12:45:58;1.58;;;1.48;;
11677;SDS011;5895;41.950;24.372;2022-09-12T12:48:29;4.70;;;1.70;;
11677;SDS011;5895;41.950;24.372;2022-09-12T12:53:59;3.72;;;1.40;;
11677;SDS011;5895;41.950;24.372;2022-09-12T12:56:32;1.63;;;1.52;;
11677;SDS011;5895;41.950;24.372;2022-09-12T12:59:11;1.85;;;1.75;;
11677;SDS011;5895;41.950;24.372;2022-09-12T13:01:46;1.95;;;1.60;;
11677;SDS011;5895;41.950;24.372;2022-09-12T13:04:16;2.30;;;1.70;;
11677;SDS011;5895;41.950;24.372;2022-09-12T13:06:53;3.38;;;1.83;;
11677;SDS011;5895;41.950;24.372;2022-09-12T13:09:24;4.30;;;1.85;;
11677;SDS011;5895;41.950;24.372;2022-09-12T13:11:57;2.10;;;1.90;;
11677;SDS011;5895;41.950;24.372;2022-09-12T13:17:16;1.95;;;1.80;;
11677;SDS011;5895;41.950;24.372;2022-09-12T13:19:48;2.10;;;1.90;;
11677;SDS011;5895;41.950;24.372;2022-09-12T13:22:19;1.83;;;1.73;;
11677;SDS011;5895;41.950;24.372;2022-09-12T13:24:49;1.80;;;1.70;;
11677;SDS011;5895;41.950;24.372;2022-09-12T13:27:18;3.78;;;2.28;;
11677;SDS011;5895;41.950;24.372;2022-09-12T13:29:47;2.20;;;2.00;;
11677;SDS011;5895;41.950;24.372;2022-09-12T13:32:15;3.63;;;1.90;;
11677;SDS011;5895;41.950;24.372;2022-09-12T13:34:49;2.28;;;2.15;;
11677;SDS011;5895;41.950;24.372;2022-09-12T13:37:35;4.00;;;2.08;;
11677;SDS011;5895;41.950;24.372;2022-09-12T13:40:25;2.00;;;1.90;;
11677;SDS011;5895;41.950;24.372;2022-09-12T13:43:05;2.45;;;2.25;;
11677;SDS011;5895;41.950;24.372;2022-09-12T13:45:39;5.15;;;2.20;;
11677;SDS011;5895;41.950;24.372;2022-09-12T13:48:09;2.80;;;2.08;;
11677;SDS011;5895;41.950;24.372;2022-09-12T13:50:49;2.38;;;2.28;;
11677;SDS011;5895;41.950;24.372;2022-09-12T13:53:21;2.33;;;2.22;;
11677;SDS011;5895;41.950;24.372;2022-09-12T13:55:52;2.22;;;2.10;;
11677;SDS011;5895;41.950;24.372;2022-09-12T13:58:23;2.67;;;2.20;;
11677;SDS011;5895;41.950;24.372;2022-09-12T14:01:02;2.40;;;2.20;;
11677;SDS011;5895;41.950;24.372;2022-09-12T14:03:33;3.47;;;2.50;;
11677;SDS011;5895;41.950;24.372;2022-09-12T14:06:23;2.30;;;2.20;;
11677;SDS011;5895;41.950;24.372;2022-09-12T14:08:53;2.08;;;1.98;;
11677;SDS011;5895;41.950;24.372;2022-09-12T14:11:25;3.90;;;2.30;;
11677;SDS011;5895;41.950;24.372;2022-09-12T14:13:53;2.53;;;2.33;;
11677;SDS011;5895;41.950;24.372;2022-09-12T14:16:21;2.78;;;2.58;;
11677;SDS011;5895;41.950;24.372;2022-09-12T14:18:51;2.72;;;2.53;;
11677;SDS011;5895;41.950;24.372;2022-09-12T14:21:23;2.92;;;2.67;;
11677;SDS011;5895;41.950;24.372;2022-09-12T14:23:59;5.45;;;2.60;;
11677;SDS011;5895;41.950;24.372;2022-09-12T14:26:29;2.63;;;2.42;;
11677;SDS011;5895;41.950;24.372;2022-09-12T14:29:00;2.60;;;2.40;;
11677;SDS011;5895;41.950;24.372;2022-09-12T14:31:32;3.10;;;2.90;;
11677;SDS011;5895;41.950;24.372;2022-09-12T14:34:08;3.33;;;3.13;;
11677;SDS011;5895;41.950;24.372;2022-09-12T14:36:39;3.63;;;3.33;;
11677;SDS011;5895;41.950;24.372;2022-09-12T14:39:18;4.18;;;3.78;;
11677;SDS011;5895;41.950;24.372;2022-09-12T14:41:49;4.00;;;3.70;;
11677;SDS011;5895;41.950;24.372;2022-09-12T14:44:25;4.45;;;4.05;;
11677;SDS011;5895;41.950;24.372;2022-09-12T14:46:55;6.30;;;5.45;;
11677;SDS011;5895;41.950;24.372;2022-09-12T14:49:29;4.65;;;4.25;;
11677;SDS011;5895;41.950;24.372;2022-09-12T14:51:59;4.82;;;3.75;;
11677;SDS011;5895;41.950;24.372;2022-09-12T14:54:35;4.32;;;4.03;;
11677;SDS011;5895;41.950;24.372;2022-09-12T15:00:15;4.55;;;4.15;;
11677;SDS011;5895;41.950;24.372;2022-09-12T15:02:45;8.02;;;4.07;;
11677;SDS011;5895;41.950;24.372;2022-09-12T15:05:15;4.28;;;3.95;;
11677;SDS011;5895;41.950;24.372;2022-09-12T15:07:50;4.68;;;4.28;;
11677;SDS011;5895;41.950;24.372;2022-09-12T15:10:22;4.75;;;4.28;;
11677;SDS011;5895;41.950;24.372;2022-09-12T15:13:02;4.50;;;4.10;;
11677;SDS011;5895;41.950;24.372;2022-09-12T15:15:55;4.22;;;3.92;;
11677;SDS011;5895;41.950;24.372;2022-09-12T15:18:24;4.60;;;4.30;;
11677;SDS011;5895;41.950;24.372;2022-09-12T15:20:53;5.30;;;4.50;;
11677;SDS011;5895;41.950;24.372;2022-09-12T15:23:27;6.25;;;4.18;;
11677;SDS011;5895;41.950;24.372;2022-09-12T15:26:01;4.45;;;4.05;;
11677;SDS011;5895;41.950;24.372;2022-09-12T15:28:29;5.18;;;4.78;;
11677;SDS011;5895;41.950;24.372;2022-09-12T15:30:59;6.03;;;5.20;;
11677;SDS011;5895;41.950;24.372;2022-09-12T15:33:31;6.03;;;5.40;;
11677;SDS011;5895;41.950;24.372;2022-09-12T15:35:59;5.95;;;5.45;;
11677;SDS011;5895;41.950;24.372;2022-09-12T15:38:27;11.20;;;6.20;;
11677;SDS011;5895;41.950;24.372;2022-09-12T15:40:54;9.07;;;8.18;;
11677;SDS011;5895;41.950;24.372;2022-09-12T15:43:23;8.13;;;7.43;;
11677;SDS011;5895;41.950;24.372;2022-09-12T15:45:51;5.85;;;5.38;;
11677;SDS011;5895;41.950;24.372;2022-09-12T15:48:19;5.57;;;5.18;;
11677;SDS011;5895;41.950;24.372;2022-09-12T15:50:46;5.13;;;4.78;;
11677;SDS011;5895;41.950;24.372;2022-09-12T15:53:14;5.65;;;5.15;;
11677;SDS011;5895;41.950;24.372;2022-09-12T15:55:42;15.50;;;8.98;;
11677;SDS011;5895;41.950;24.372;2022-09-12T15:58:10;6.97;;;5.85;;
11677;SDS011;5895;41.950;24.372;2022-09-12T16:00:40;5.75;;;5.22;;
11677;SDS011;5895;41.950;24.372;2022-09-12T16:03:08;6.40;;;5.82;;
11677;SDS011;5895;41.950;24.372;2022-09-12T16:05:43;5.88;;;5.38;;